Time;durP1;ratioP1;P1;durP2;ratioP2;P2;SDS_P1;SDS_P2;PMS_P1;PMS_P2;Temp;Humidity;BMP_temperature;BMP_pressure;BME280_temperature;BME280_humidity;BME280_pressure;Samples;Min_cycle;Max_cycle;Signal;HPM_P1;HPM_P2
2020/12/04 00:01:43;;;;;;;44.30;15.50;;;2.20;80.00;;;1.19;65.51;93231.56;5092333;28;20187;-80
2020/12/04 00:04:10;;;;;;;50.40;16.23;;;2.20;80.00;;;1.17;65.62;93225.78;5075084;28;20224;-81
2020/12/04 00:06:37;;;;;;;50.13;17.80;;;2.20;80.00;;;1.17;65.80;93222.41;5058884;28;20198;-81
2020/12/04 00:09:04;;;;;;;37.22;16.15;;;2.20;80.10;;;1.17;65.91;93217.25;5075357;28;20641;-79
2020/12/04 00:11:34;;;;;;;53.05;16.85;;;2.20;80.10;;;1.17;66.12;93217.25;5075219;28;20202;-80
2020/12/04 00:14:02;;;;;;;59.58;18.02;;;2.20;80.10;;;1.15;65.95;93216.59;5075164;28;20242;-81
2020/12/04 00:16:29;;;;;;;39.63;16.05;;;2.20;80.10;;;1.12;66.41;93204.84;5075208;28;20226;-81
2020/12/04 00:18:56;;;;;;;51.28;17.20;;;2.20;80.10;;;1.16;66.13;93207.88;5058693;28;20258;-81
2020/12/04 00:21:23;;;;;;;41.88;17.13;;;2.20;80.20;;;1.15;66.21;93214.84;5091520;28;20233;-81
2020/12/04 00:23:51;;;;;;;39.90;15.82;;;2.20;80.20;;;1.15;65.78;93199.34;5058836;28;20239;-80
2020/12/04 00:26:18;;;;;;;32.65;15.75;;;2.20;80.20;;;1.17;66.08;93187.03;5074689;28;20285;-81
2020/12/04 00:28:44;;;;;;;45.53;15.20;;;2.20;80.20;;;1.19;66.04;93172.19;5058716;28;20310;-81
2020/12/04 00:31:11;;;;;;;50.70;16.52;;;2.20;80.20;;;1.20;66.14;93170.41;5074847;28;20270;-80
2020/12/04 00:33:38;;;;;;;31.58;15.68;;;2.20;80.20;;;1.22;65.82;93181.34;5058398;28;20234;-81
2020/12/04 00:36:04;;;;;;;37.60;15.15;;;2.20;80.30;;;1.22;66.03;93165.84;5074960;28;20206;-80
2020/12/04 00:38:31;;;;;;;45.40;15.00;;;2.20;80.20;;;1.24;66.07;93169.06;5074626;28;20697;-80
2020/12/04 00:40:58;;;;;;;45.80;15.77;;;2.20;80.20;;;1.22;65.83;93166.69;5074987;28;20289;-79
2020/12/04 00:43:26;;;;;;;43.30;14.52;;;2.20;80.30;;;1.23;66.24;93168.28;5074875;28;20637;-80
2020/12/04 00:45:53;;;;;;;60.75;14.95;;;2.30;80.30;;;1.24;65.94;93176.81;5058346;28;20285;-79
2020/12/04 00:48:20;;;;;;;53.85;16.55;;;2.30;80.30;;;1.20;66.33;93163.47;5074588;28;20220;-81
2020/12/04 00:50:47;;;;;;;39.97;13.73;;;2.30;80.40;;;1.26;66.15;93174.88;5091555;28;20667;-80
2020/12/04 00:53:14;;;;;;;40.50;15.05;;;2.30;80.30;;;1.23;65.82;93160.53;5074348;28;20244;-80
2020/12/04 00:55:44;;;;;;;29.98;14.25;;;2.30;80.30;;;1.29;66.01;93166.75;5075311;28;20203;-80
2020/12/04 00:58:12;;;;;;;39.33;12.65;;;2.30;80.40;;;1.30;65.85;93159.81;5058243;28;20427;-79
2020/12/04 01:00:41;;;;;;;48.72;15.23;;;2.30;80.40;;;1.31;66.02;93162.22;5058897;28;20282;-80
2020/12/04 01:03:08;;;;;;;51.85;15.45;;;2.30;80.30;;;1.30;65.97;93152.06;5057762;28;20275;-81
2020/12/04 01:05:35;;;;;;;48.53;14.57;;;2.30;80.40;;;1.28;66.07;93142.72;5074255;28;20211;-80
2020/12/04 01:08:02;;;;;;;33.90;12.68;;;2.30;80.40;;;1.33;65.98;93146.53;5074841;28;20255;-81
2020/12/04 01:10:29;;;;;;;39.88;13.40;;;2.30;80.40;;;1.37;65.90;93147.78;5072691;28;20294;-80
2020/12/04 01:12:56;;;;;;;44.45;14.52;;;2.30;80.40;;;1.39;65.77;93145.81;5057653;28;20240;-81
2020/12/04 01:15:22;;;;;;;42.95;14.65;;;2.40;80.40;;;1.41;65.75;93149.81;5057842;28;20268;-80
2020/12/04 01:17:49;;;;;;;45.85;14.15;;;2.40;80.40;;;1.42;65.69;93146.25;5095187;28;20186;-80
2020/12/04 01:20:16;;;;;;;44.75;14.77;;;2.40;80.40;;;1.42;65.86;93143.69;5078374;28;20730;-80
2020/12/04 01:22:42;;;;;;;47.13;15.15;;;2.40;80.40;;;1.44;65.90;93139.13;5095225;28;20218;-80
2020/12/04 01:25:09;;;;;;;46.88;14.60;;;2.40;80.40;;;1.43;66.16;93136.75;5078595;28;20688;-81
2020/12/04 01:27:36;;;;;;;36.30;14.63;;;2.40;80.30;;;1.44;66.04;93139.13;5078445;28;20199;-81
2020/12/04 01:30:03;;;;;;;37.33;14.43;;;2.40;80.40;;;1.47;65.89;93137.97;5095193;28;20812;-80
2020/12/04 01:32:31;;;;;;;48.70;14.77;;;2.40;80.40;;;1.46;65.93;93144.13;5078285;28;20202;-81
2020/12/04 01:34:57;;;;;;;33.40;13.32;;;2.50;80.40;;;1.43;65.48;93126.41;5078332;28;20249;-80
2020/12/04 01:37:24;;;;;;;33.00;13.77;;;2.50;80.40;;;1.48;66.07;93118.91;5078210;28;20199;-81
2020/12/04 01:39:50;;;;;;;41.67;15.02;;;2.50;80.40;;;1.43;66.14;93100.56;5078276;28;20634;-79
2020/12/04 01:42:17;;;;;;;35.10;13.63;;;2.50;80.40;;;1.45;65.73;93093.44;5078546;28;20293;-81
2020/12/04 01:44:44;;;;;;;39.95;15.35;;;2.50;80.40;;;1.44;66.00;93087.47;5094843;28;20285;-80
2020/12/04 01:47:12;;;;;;;38.08;14.27;;;2.50;80.40;;;1.46;66.09;93084.69;5078468;28;20191;-80
2020/12/04 01:49:40;;;;;;;39.70;15.25;;;2.50;80.40;;;1.38;66.18;93087.38;5095098;28;20225;-80
2020/12/04 01:52:07;;;;;;;33.85;13.73;;;2.50;80.40;;;1.43;65.81;93098.78;5095499;28;20187;-80
2020/12/04 01:54:34;;;;;;;33.85;14.63;;;2.50;80.40;;;1.47;66.03;93112.13;5077874;28;20320;-81
2020/12/04 01:57:02;;;;;;;28.08;14.52;;;2.50;80.50;;;1.48;66.12;93108.59;5078022;28;20597;-81
2020/12/04 01:59:28;;;;;;;29.00;14.77;;;2.50;80.50;;;1.52;66.26;93116.78;5094764;28;20721;-80
2020/12/04 02:02:13;;;;;;;28.90;14.60;;;2.50;80.50;;;1.53;65.62;93097.72;5077828;28;20214;-81
2020/12/04 02:04:40;;;;;;;27.75;13.43;;;2.50;80.50;;;1.54;65.77;93094.16;5094523;28;20218;-80
2020/12/04 02:07:16;;;;;;;27.17;13.48;;;2.50;80.50;;;1.54;66.05;93104.47;5060808;28;20210;-81
2020/12/04 02:09:51;;;;;;;22.80;12.40;;;2.50;80.50;;;1.50;65.93;93096.28;5077836;28;20316;-80
2020/12/04 02:12:19;;;;;;;32.45;14.68;;;2.50;80.40;;;1.53;65.77;93101.09;5077603;28;20193;-81
2020/12/04 02:14:51;;;;;;;23.27;13.32;;;2.60;80.50;;;1.54;65.94;93110.44;5077711;28;20256;-81
2020/12/04 02:17:33;;;;;;;29.83;14.63;;;2.50;80.50;;;1.55;65.80;93101.72;5094221;28;20202;-81
2020/12/04 02:20:00;;;;;;;27.92;14.38;;;2.50;80.60;;;1.57;65.96;93115.22;5061381;28;20304;-81
2020/12/04 02:22:35;;;;;;;23.30;13.30;;;2.60;80.50;;;1.59;65.99;93109.91;5077309;28;20256;-81
2020/12/04 02:25:05;;;;;;;25.92;14.80;;;2.60;80.60;;;1.60;65.81;93103.75;5077713;28;20229;-80
2020/12/04 02:27:32;;;;;;;25.67;14.00;;;2.60;80.60;;;1.59;65.86;93084.84;5077146;28;20233;-81
2020/12/04 02:29:59;;;;;;;26.90;14.68;;;2.60;80.50;;;1.59;65.98;93095.19;5077583;28;20206;-81
2020/12/04 02:32:26;;;;;;;27.77;13.75;;;2.60;80.60;;;1.61;65.85;93084.66;5077088;28;20194;-81
2020/12/04 02:34:53;;;;;;;28.58;14.10;;;2.60;80.60;;;1.63;65.86;93090.47;5077386;28;20230;-81
2020/12/04 02:37:19;;;;;;;42.92;14.02;;;2.70;80.60;;;1.64;66.06;93088.69;5077139;28;20226;-81
2020/12/04 02:39:46;;;;;;;34.75;13.65;;;2.60;80.50;;;1.65;65.88;93082.50;5069213;28;20702;-81
2020/12/04 02:42:12;;;;;;;27.30;13.98;;;2.60;80.50;;;1.64;66.00;93071.38;5071855;28;20233;-81
2020/12/04 02:44:39;;;;;;;24.42;13.40;;;2.60;80.50;;;1.65;66.32;93057.50;5075179;28;20309;-81
2020/12/04 02:47:06;;;;;;;34.70;14.77;;;2.70;80.60;;;1.63;66.13;93061.25;5056979;28;20208;-81
2020/12/04 02:49:33;;;;;;;39.25;14.38;;;2.60;80.50;;;1.65;66.22;93067.81;5040784;28;20720;-80
2020/12/04 02:52:00;;;;;;;39.35;13.60;;;2.60;80.60;;;1.60;66.10;93052.88;5040228;28;20564;-81
2020/12/04 02:54:27;;;;;;;32.72;13.77;;;2.60;80.50;;;1.65;66.10;93073.00;5040189;28;20235;-81
2020/12/04 02:56:54;;;;;;;29.58;13.85;;;2.70;80.60;;;1.67;65.93;93065.06;5042637;28;20282;-80
2020/12/04 02:59:22;;;;;;;29.90;13.25;;;2.70;80.60;;;1.64;65.93;93052.50;5093313;28;20268;-81
2020/12/04 03:01:48;;;;;;;33.90;14.32;;;2.70;80.60;;;1.68;66.10;93061.50;5076623;28;20205;-81
2020/12/04 03:04:15;;;;;;;26.48;13.57;;;2.70;80.70;;;1.69;66.15;93060.50;5076593;28;20207;-80
2020/12/04 03:06:42;;;;;;;25.73;12.38;;;2.70;80.70;;;1.67;65.94;93041.78;5093245;28;20696;-81
2020/12/04 03:09:09;;;;;;;34.40;13.48;;;2.70;80.60;;;1.67;66.04;93047.78;5076734;28;20222;-81
2020/12/04 03:11:36;;;;;;;27.13;12.93;;;2.70;80.60;;;1.67;66.02;93034.03;5076475;28;20210;-81
2020/12/04 03:14:03;;;;;;;23.90;13.27;;;2.70;80.70;;;1.66;66.06;93030.66;5076361;28;20218;-81
2020/12/04 03:16:29;;;;;;;31.95;12.57;;;2.70;80.60;;;1.70;66.03;93029.31;5076638;28;20205;-81
2020/12/04 03:18:56;;;;;;;24.92;13.68;;;2.70;80.70;;;1.70;66.39;93034.47;5076357;28;20593;-81
2020/12/04 03:21:23;;;;;;;22.05;13.23;;;2.70;80.70;;;1.69;66.19;93026.91;5076619;28;20194;-81
2020/12/04 03:23:50;;;;;;;26.27;14.13;;;2.70;80.70;;;1.70;65.82;93024.13;5093021;28;20230;-81
2020/12/04 03:26:16;;;;;;;23.85;13.43;;;2.70;80.70;;;1.75;66.30;93033.94;5076431;28;20198;-82
2020/12/04 03:28:44;;;;;;;20.13;11.82;;;2.70;80.70;;;1.75;65.87;93026.97;5074756;28;20215;-81
2020/12/04 03:31:11;;;;;;;29.38;14.30;;;2.70;80.70;;;1.75;66.32;93026.97;5073132;28;20195;-81
2020/12/04 03:33:37;;;;;;;24.45;13.65;;;2.70;80.70;;;1.71;66.07;93015.41;5071934;28;20226;-81
2020/12/04 03:36:04;;;;;;;25.05;12.85;;;2.70;80.70;;;1.76;66.27;93007.88;5069909;28;20203;-81
2020/12/04 03:38:31;;;;;;;28.02;13.15;;;2.80;80.80;;;1.76;66.48;93010.47;5102446;28;20311;-80
2020/12/04 03:40:58;;;;;;;28.58;13.70;;;2.80;80.80;;;1.78;66.05;93009.50;5091405;28;20195;-81
2020/12/04 03:43:26;;;;;;;35.58;14.05;;;2.80;80.70;;;1.76;66.29;93000.13;5057255;28;20634;-81
2020/12/04 03:45:52;;;;;;;26.27;13.10;;;2.80;80.80;;;1.78;65.80;93010.28;5074863;28;20278;-81
2020/12/04 03:48:19;;;;;;;23.90;12.38;;;2.80;80.80;;;1.72;66.81;92991.16;5051233;28;20222;-81
2020/12/04 03:50:45;;;;;;;43.95;13.82;;;2.80;80.80;;;1.79;66.56;92998.19;5074791;28;20278;-81
2020/12/04 03:53:12;;;;;;;23.90;13.02;;;2.80;80.80;;;1.76;66.68;92999.34;5072194;28;20190;-81
2020/12/04 03:55:39;;;;;;;36.28;13.88;;;2.80;80.80;;;1.75;66.36;92995.94;5072261;28;20456;-79
2020/12/04 03:58:06;;;;;;;28.55;12.93;;;2.80;80.80;;;1.82;66.21;92990.03;5054396;28;20699;-81
2020/12/04 04:00:32;;;;;;;32.20;12.68;;;2.80;81.60;;;1.80;66.11;92997.19;5089985;28;20202;-79
2020/12/04 04:02:59;;;;;;;47.08;13.32;;;2.80;80.80;;;1.82;66.30;93002.97;5081047;28;20217;-81
2020/12/04 04:05:25;;;;;;;36.22;13.15;;;2.80;80.80;;;1.82;66.09;92995.22;5069676;28;20221;-81
2020/12/04 04:07:52;;;;;;;22.65;10.63;;;2.90;80.80;;;1.82;65.95;93002.97;5072196;28;20199;-81
2020/12/04 04:10:19;;;;;;;32.58;11.18;;;2.80;80.80;;;1.83;66.26;93002.78;5064833;28;20247;-81
2020/12/04 04:12:46;;;;;;;28.20;11.75;;;2.80;80.80;;;1.79;65.90;92993.78;5069830;28;20191;-81
2020/12/04 04:15:13;;;;;;;19.63;11.23;;;2.80;80.80;;;1.86;66.25;93009.38;5069950;28;20211;-81
2020/12/04 04:17:41;;;;;;;29.15;12.00;;;2.80;80.80;;;1.85;66.06;92997.44;5069652;28;20649;-81
2020/12/04 04:20:08;;;;;;;31.60;12.43;;;2.80;80.80;;;1.87;66.41;92998.06;5053066;28;20219;-80
2020/12/04 04:22:35;;;;;;;44.25;13.05;;;2.80;80.80;;;1.87;66.13;92996.25;5086290;28;20206;-80
2020/12/04 04:25:02;;;;;;;39.28;12.50;;;2.80;80.80;;;1.88;65.85;92992.69;5086991;28;20207;-81
2020/12/04 04:27:29;;;;;;;27.98;11.63;;;2.80;80.80;;;1.88;66.20;92991.88;5069664;28;20210;-81
2020/12/04 04:29:55;;;;;;;30.80;13.20;;;2.80;80.80;;;1.88;66.15;92995.28;5083953;28;20273;-81
2020/12/04 04:32:22;;;;;;;32.53;13.90;;;2.90;80.90;;;1.88;66.42;92992.69;5071537;28;20222;-82
2020/12/04 04:34:49;;;;;;;38.97;14.40;;;2.90;80.90;;;1.87;66.70;92985.91;5055086;28;20296;-81
2020/12/04 04:37:16;;;;;;;30.17;12.77;;;2.90;80.90;;;1.87;66.30;92988.50;5086356;28;20286;-82
2020/12/04 04:39:43;;;;;;;23.70;12.60;;;2.90;80.90;;;1.89;66.12;92991.72;5069718;28;20221;-81
2020/12/04 04:42:10;;;;;;;29.52;13.27;;;2.90;80.90;;;1.85;66.31;92981.91;5074701;28;20561;-81
2020/12/04 04:44:38;;;;;;;23.90;12.68;;;2.90;80.90;;;1.86;66.36;92975.78;5091126;28;20652;-81
2020/12/04 04:47:12;;;;;;;36.42;13.65;;;2.90;80.90;;;1.89;66.27;92977.97;5073874;28;20201;-81
2020/12/04 04:49:51;;;;;;;33.72;13.93;;;2.90;81.00;;;1.91;66.41;92988.94;5091262;28;20233;-80
2020/12/04 04:52:19;;;;;;;34.55;14.07;;;2.90;81.00;;;1.89;66.11;92991.72;5073163;28;20201;-81
2020/12/04 04:54:48;;;;;;;24.15;12.13;;;2.90;80.90;;;1.91;66.22;92981.19;5072700;28;20279;-79
2020/12/04 04:57:24;;;;;;;22.45;12.25;;;2.90;80.90;;;1.92;66.39;92986.16;5089599;28;20657;-80
2020/12/04 04:59:54;;;;;;;33.55;13.73;;;2.90;81.00;;;1.86;66.33;92970.59;5089871;28;20214;-80
2020/12/04 05:02:20;;;;;;;31.95;13.27;;;2.90;81.00;;;1.91;66.48;92983.75;5089294;28;20219;-81
2020/12/04 05:04:56;;;;;;;30.38;14.98;;;2.90;81.00;;;1.90;66.60;92993.31;5071460;28;20229;-81
2020/12/04 05:07:32;;;;;;;25.08;12.82;;;2.90;81.10;;;1.90;66.53;92985.56;5052828;28;20183;-81
2020/12/04 05:10:16;;;;;;;26.95;12.40;;;2.90;81.10;;;1.93;66.29;92994.72;5071157;28;20207;-81
2020/12/04 05:12:45;;;;;;;32.78;12.73;;;2.90;81.20;;;1.94;66.96;92991.13;5054844;28;20240;-81
2020/12/04 05:15:27;;;;;;;22.17;12.98;;;2.90;81.90;;;1.95;66.51;92981.59;5055508;28;20250;-80
2020/12/04 05:18:05;;;;;;;28.42;12.00;;;2.90;81.20;;;1.95;66.62;92979.03;5074692;28;20201;-81
2020/12/04 05:20:35;;;;;;;34.53;13.82;;;2.90;81.10;;;1.97;66.49;92988.19;5091618;28;20263;-81
2020/12/04 05:23:03;;;;;;;27.25;12.95;;;2.90;81.10;;;1.96;66.50;92970.28;5091087;28;20708;-81
2020/12/04 05:25:44;;;;;;;32.10;12.98;;;2.90;81.10;;;1.95;66.57;92976.44;5091182;28;20218;-80
2020/12/04 05:28:19;;;;;;;23.98;11.68;;;3.00;81.20;;;1.97;66.68;92966.72;5074464;28;20207;-81
2020/12/04 05:30:50;;;;;;;22.77;13.00;;;2.90;81.10;;;1.88;66.76;92953.91;5074540;28;20660;-80
2020/12/04 05:33:18;;;;;;;29.63;14.27;;;3.00;81.20;;;1.94;66.83;92960.09;5090902;28;20712;-81
2020/12/04 05:35:53;;;;;;;32.25;13.88;;;3.00;81.20;;;1.96;66.80;92968.47;5074525;28;20248;-81
2020/12/04 05:38:20;;;;;;;34.17;12.95;;;2.90;81.20;;;1.96;66.59;92955.56;5091144;28;20194;-81
2020/12/04 05:40:51;;;;;;;27.27;13.93;;;3.00;81.20;;;1.98;66.55;92953.59;5074522;28;20191;-81
2020/12/04 05:43:34;;;;;;;28.77;13.00;;;3.00;81.30;;;1.95;66.68;92941.03;5091116;28;20215;-80
2020/12/04 05:46:26;;;;;;;20.65;12.77;;;3.00;81.30;;;1.95;66.75;92945.41;5073867;28;20216;-81
2020/12/04 05:48:59;;;;;;;22.48;13.50;;;3.00;81.20;;;1.98;66.69;92956.19;5090747;28;20213;-81
2020/12/04 05:51:32;;;;;;;22.38;13.88;;;3.00;81.20;;;1.98;66.97;92963.13;5074076;28;20187;-80
2020/12/04 05:54:01;;;;;;;19.83;13.23;;;3.00;81.20;;;1.98;66.78;92955.34;5091107;28;20218;-81
2020/12/04 05:56:32;;;;;;;19.88;12.45;;;3.00;81.10;;;1.98;66.72;92945.03;5090449;28;20226;-81
2020/12/04 05:59:06;;;;;;;23.15;12.90;;;3.00;81.20;;;1.97;66.57;92933.88;5107753;28;20211;-81
2020/12/04 06:01:34;;;;;;;20.77;12.80;;;3.00;81.20;;;1.99;66.73;92926.75;5090864;28;20783;-81
2020/12/04 06:04:02;;;;;;;19.75;13.07;;;3.00;81.20;;;2.01;66.49;92921.38;5092588;28;20643;-81
2020/12/04 06:06:31;;;;;;;19.95;13.15;;;3.00;81.20;;;1.97;66.53;92917.59;5079156;28;20264;-82
2020/12/04 06:09:03;;;;;;;20.90;12.68;;;3.00;81.20;;;2.02;66.52;92920.41;5057661;28;20221;-80
2020/12/04 06:11:32;;;;;;;20.75;12.82;;;3.00;81.20;;;1.99;66.82;92907.84;5057781;28;20199;-81
2020/12/04 06:14:00;;;;;;;24.88;14.23;;;3.00;81.10;;;1.97;66.72;92907.25;5074330;28;20219;-80
2020/12/04 06:16:27;;;;;;;22.52;13.30;;;3.00;81.20;;;2.02;66.52;92920.41;5057876;28;20625;-81
2020/12/04 06:18:54;;;;;;;20.75;13.18;;;3.00;81.20;;;1.97;66.67;92912.41;5040843;28;20284;-81
2020/12/04 06:21:46;;;;;;;22.05;13.75;;;3.00;81.20;;;2.00;66.19;92915.44;5072493;28;20234;-79
2020/12/04 06:24:14;;;;;;;24.17;13.75;;;3.00;81.20;;;2.00;66.52;92918.00;5094128;28;20231;-81
2020/12/04 06:26:51;;;;;;;24.60;15.02;;;3.00;81.10;;;2.00;66.67;92917.19;5093740;28;20208;-81
2020/12/04 06:29:18;;;;;;;22.02;13.68;;;3.00;81.20;;;1.99;66.66;92889.75;5077604;28;20274;-81
2020/12/04 06:31:45;;;;;;;24.42;14.95;;;3.00;81.20;;;1.98;66.70;92903.66;5076630;28;20745;-81
2020/12/04 06:34:20;;;;;;;25.35;14.88;;;3.00;81.20;;;2.00;66.36;92906.84;5094126;28;20222;-81
2020/12/04 06:36:49;;;;;;;27.23;16.02;;;3.10;81.30;;;1.95;66.68;92914.38;5076790;28;20198;-81
2020/12/04 06:39:32;;;;;;;22.13;14.82;;;3.00;81.20;;;1.92;66.90;92915.56;5076741;28;20243;-81
2020/12/04 06:41:59;;;;;;;22.02;14.40;;;3.00;81.30;;;1.96;66.67;92913.41;5094036;28;20617;-81
2020/12/04 06:44:31;;;;;;;21.60;13.27;;;3.00;81.20;;;1.94;67.05;92925.72;5093917;28;20238;-81
2020/12/04 06:47:00;;;;;;;24.75;15.25;;;3.00;81.20;;;1.96;66.66;92926.31;5093709;28;20199;-81
2020/12/04 06:49:39;;;;;;;24.50;14.65;;;2.90;81.20;;;1.95;66.47;92920.34;5094045;28;20230;-81
2020/12/04 06:52:14;;;;;;;23.50;15.00;;;3.00;81.30;;;1.96;66.65;92919.38;5076919;28;20267;-81
2020/12/04 06:54:49;;;;;;;22.83;13.98;;;2.90;81.20;;;1.94;66.82;92912.78;5076873;28;20210;-81
2020/12/04 06:57:19;;;;;;;22.70;14.15;;;2.90;81.20;;;1.91;66.78;92916.53;5093789;28;20287;-81
2020/12/04 06:59:47;;;;;;;25.02;14.68;;;3.00;81.20;;;1.96;66.80;92927.13;5073691;28;20263;-81
2020/12/04 07:02:18;;;;;;;26.20;15.55;;;3.00;81.20;;;1.98;66.50;92934.69;5071640;28;20208;-82
2020/12/04 07:04:52;;;;;;;24.08;15.27;;;3.00;81.20;;;1.97;67.11;92936.47;5072651;28;20211;-83
2020/12/04 07:07:25;;;;;;;26.58;16.13;;;3.00;81.20;;;1.98;66.63;92934.69;5075859;28;20279;-79
2020/12/04 07:10:01;;;;;;;25.23;15.10;;;3.00;81.20;;;1.98;66.72;92934.69;5075934;28;20219;-82
2020/12/04 07:12:30;;;;;;;24.27;14.38;;;3.00;81.20;;;1.91;66.67;92926.88;5076194;28;20656;-80
2020/12/04 07:14:59;;;;;;;24.30;15.48;;;3.00;81.20;;;1.97;66.53;92933.09;5091680;28;20612;-81
2020/12/04 07:17:30;;;;;;;23.48;15.35;;;3.00;81.20;;;1.94;66.73;92923.91;5059630;28;20205;-79
2020/12/04 07:20:01;;;;;;;23.10;14.15;;;3.00;81.30;;;1.96;66.66;92929.69;5092978;28;20211;-80
2020/12/04 07:22:28;;;;;;;27.15;17.17;;;3.00;81.20;;;1.96;66.74;92916.78;5076590;28;20202;-82
2020/12/04 07:24:56;;;;;;;26.88;15.20;;;3.00;81.30;;;2.01;66.47;92929.94;5059507;28;20688;-82
2020/12/04 07:27:29;;;;;;;26.80;16.15;;;3.00;81.30;;;2.02;66.81;92921.19;5072819;28;20203;-82
2020/12/04 07:29:57;;;;;;;29.67;16.17;;;3.00;81.40;;;2.02;67.24;92928.16;5056173;28;20223;-80
2020/12/04 07:32:26;;;;;;;26.83;16.48;;;3.00;81.40;;;2.02;66.86;92920.41;5080515;28;20226;-81
2020/12/04 07:34:53;;;;;;;24.63;16.08;;;3.00;81.40;;;2.07;66.96;92928.38;5076555;28;20659;-80
2020/12/04 07:37:27;;;;;;;26.83;15.80;;;3.00;81.40;;;2.06;66.88;92934.53;5076225;28;20203;-79
2020/12/04 07:39:54;;;;;;;27.33;15.98;;;3.10;81.50;;;2.06;66.73;92930.19;5076260;28;20214;-82
2020/12/04 07:42:21;;;;;;;26.55;15.48;;;3.00;81.40;;;2.11;66.74;92934.75;5076042;28;20198;-82
2020/12/04 07:44:52;;;;;;;24.88;15.45;;;3.00;81.40;;;2.15;66.82;92932.59;5092883;28;20218;-82
2020/12/04 07:47:19;;;;;;;25.38;15.07;;;3.00;81.40;;;2.22;67.10;92941.22;5075978;28;20225;-82
2020/12/04 07:49:56;;;;;;;24.25;15.13;;;3.10;81.50;;;2.20;66.69;92941.41;5059493;28;20210;-82
2020/12/04 07:52:28;;;;;;;31.65;18.15;;;3.10;81.60;;;2.21;66.89;92940.41;5075962;28;20202;-81
2020/12/04 07:55:07;;;;;;;26.10;17.30;;;3.20;81.60;;;2.20;66.75;92944.00;5058734;28;20230;-82
2020/12/04 07:57:42;;;;;;;29.50;16.42;;;3.20;81.50;;;2.23;66.84;92943.63;5056203;28;20187;-82
2020/12/04 08:00:09;;;;;;;29.35;17.02;;;3.10;81.60;;;2.25;66.66;92946.00;5088013;28;20268;-81
2020/12/04 08:02:39;;;;;;;27.52;16.45;;;3.20;81.50;;;2.22;66.91;92944.63;5076102;28;20211;-82
2020/12/04 08:05:06;;;;;;;26.65;16.55;;;3.20;81.60;;;2.30;66.96;92948.81;5059033;28;20218;-82
2020/12/04 08:07:34;;;;;;;29.13;16.75;;;3.20;81.50;;;2.34;66.55;92957.78;5046316;28;20672;-82
2020/12/04 08:10:02;;;;;;;26.13;15.90;;;3.20;81.50;;;2.37;66.71;92969.56;5038970;28;20682;-82
2020/12/04 08:12:33;;;;;;;26.77;15.77;;;3.30;81.60;;;2.41;66.76;92963.03;5065763;28;20225;-82
2020/12/04 08:15:05;;;;;;;24.50;15.48;;;3.30;81.60;;;2.44;66.42;92960.06;5055618;28;20225;-82
2020/12/04 08:17:32;;;;;;;29.63;17.52;;;3.30;81.60;;;2.46;66.49;92949.53;5055616;28;20245;-81
2020/12/04 08:19:59;;;;;;;27.73;16.75;;;3.30;81.60;;;2.49;66.52;92949.94;5071982;28;20216;-80
2020/12/04 08:22:33;;;;;;;29.40;17.15;;;3.40;81.70;;;2.54;66.29;92957.94;5055258;28;20226;-80
2020/12/04 08:25:10;;;;;;;28.38;17.25;;;3.40;81.60;;;2.52;66.60;92948.75;5054823;28;20222;-79
2020/12/04 08:27:44;;;;;;;26.80;16.35;;;3.40;81.60;;;2.59;66.83;92961.72;5040756;28;20204;-80
2020/12/04 08:30:20;;;;;;;27.35;16.55;;;3.40;81.60;;;2.64;66.60;92964.56;5038864;28;20222;-81
2020/12/04 08:33:09;;;;;;;27.02;17.25;;;3.50;81.60;;;2.67;66.29;92957.22;5055997;28;20236;-82
2020/12/04 08:35:42;;;;;;;27.58;16.52;;;3.50;81.60;;;2.71;66.72;92947.25;5055489;28;20305;-82
2020/12/04 08:38:13;;;;;;;26.95;17.13;;;3.50;81.70;;;2.76;66.60;92957.84;5073068;28;20279;-80
2020/12/04 08:40:46;;;;;;;26.67;16.90;;;3.60;81.70;;;2.79;66.00;92957.44;5091672;28;20199;-83
2020/12/04 08:43:17;;;;;;;28.33;16.55;;;3.60;81.60;;;2.84;66.51;92962.06;5075580;28;20714;-82
2020/12/04 08:45:53;;;;;;;28.83;17.05;;;3.60;81.70;;;2.85;66.41;92961.84;5091858;28;20205;-80
2020/12/04 08:48:32;;;;;;;26.88;17.77;;;3.70;81.70;;;2.88;66.30;92971.00;5080569;28;20320;-80
2020/12/04 08:51:05;;;;;;;31.23;17.70;;;3.70;81.60;;;2.92;66.05;92964.47;5055800;28;20704;-80
2020/12/04 08:53:34;;;;;;;31.73;18.48;;;3.70;81.50;;;2.94;66.33;92970.28;5054601;28;20322;-79
2020/12/04 08:56:03;;;;;;;29.50;16.88;;;3.70;81.50;;;2.97;66.30;92966.50;5071262;28;20215;-79
2020/12/04 08:58:30;;;;;;;30.75;17.42;;;3.80;81.60;;;3.02;66.37;92964.91;5054737;28;20221;-80
2020/12/04 09:00:59;;;;;;;29.90;18.02;;;3.80;81.60;;;3.06;66.47;92959.34;5071357;28;20675;-81
2020/12/04 09:03:26;;;;;;;26.75;17.33;;;3.80;81.70;;;3.12;66.21;92971.53;5054474;28;20219;-80
2020/12/04 09:05:57;;;;;;;26.92;17.30;;;3.80;81.70;;;3.19;65.97;92972.34;5060155;28;20219;-80
2020/12/04 09:08:24;;;;;;;28.27;17.33;;;3.90;81.80;;;3.25;65.97;92979.34;5062899;28;20199;-80
2020/12/04 09:10:51;;;;;;;29.75;18.65;;;4.00;81.80;;;3.25;66.36;92968.97;5071137;28;20219;-80
2020/12/04 09:13:18;;;;;;;29.65;18.92;;;4.00;81.70;;;3.29;65.80;92977.94;5072890;28;20236;-80
2020/12/04 09:15:47;;;;;;;30.77;18.48;;;4.00;81.60;;;3.31;65.65;92977.78;5075329;28;20198;-80
2020/12/04 09:18:16;;;;;;;26.80;17.33;;;4.00;81.50;;;3.32;65.56;92985.34;5074738;28;20209;-80
2020/12/04 09:20:43;;;;;;;29.83;17.15;;;4.10;81.50;;;3.34;65.97;92985.13;5075087;28;20199;-79
2020/12/04 09:23:09;;;;;;;28.77;19.05;;;4.20;81.60;;;3.35;66.04;92982.34;5057945;28;20228;-81
2020/12/04 09:25:36;;;;;;;26.73;17.35;;;4.10;81.50;;;3.35;65.99;92974.56;5070404;28;20249;-80
2020/12/04 09:28:16;;;;;;;29.67;18.67;;;4.20;81.60;;;3.40;66.23;92983.56;5091074;28;20201;-80
2020/12/04 09:30:44;;;;;;;30.70;18.52;;;4.20;81.50;;;3.43;65.72;92977.97;5072281;28;20726;-80
2020/12/04 09:33:10;;;;;;;27.85;17.98;;;4.20;81.40;;;3.44;65.67;92983.00;5057656;28;20199;-79
2020/12/04 09:35:37;;;;;;;26.48;16.02;;;4.20;81.40;;;3.48;66.02;92979.00;5057528;28;20634;-79
2020/12/04 09:38:04;;;;;;;31.88;18.45;;;4.20;81.40;;;3.53;65.58;92970.66;5072650;28;20198;-80
2020/12/04 09:40:31;;;;;;;28.55;16.98;;;4.30;81.50;;;3.58;65.89;92963.06;5077571;28;20222;-80
2020/12/04 09:42:57;;;;;;;28.48;17.92;;;4.30;81.50;;;3.60;65.77;92976.66;5069836;28;20241;-80
2020/12/04 09:45:24;;;;;;;29.95;17.67;;;4.30;81.40;;;3.61;65.73;92980.81;5095195;28;20214;-80
2020/12/04 09:47:51;;;;;;;28.95;18.13;;;4.30;81.30;;;3.61;65.50;92977.44;5078365;28;20676;-80
2020/12/04 09:50:18;;;;;;;28.52;17.40;;;4.40;81.40;;;3.65;65.57;92989.81;5078165;28;20211;-80
2020/12/04 09:52:45;;;;;;;26.65;16.40;;;4.40;81.30;;;3.67;65.77;92979.22;5095083;28;20195;-80
2020/12/04 09:55:11;;;;;;;27.55;16.38;;;4.40;81.40;;;3.69;65.60;92980.63;5077809;28;20215;-80
2020/12/04 09:57:43;;;;;;;25.98;16.83;;;4.40;81.30;;;3.73;65.65;92983.63;5062555;28;20289;-82
2020/12/04 10:00:11;;;;;;;27.95;16.20;;;4.50;81.30;;;3.75;65.41;92981.66;5077069;28;20222;-80
2020/12/04 10:02:38;;;;;;;27.52;17.42;;;4.50;81.30;;;3.78;65.57;92976.03;5078153;28;20323;-81
2020/12/04 10:05:05;;;;;;;27.88;17.15;;;4.50;81.40;;;3.82;65.68;92972.09;5061024;28;20269;-82
2020/12/04 10:07:32;;;;;;;26.83;16.65;;;4.60;81.40;;;3.93;65.84;92982.84;5065900;28;20199;-80
2020/12/04 10:09:59;;;;;;;30.00;17.88;;;4.60;81.60;;;4.00;65.90;92987.06;5057501;28;20334;-80
2020/12/04 10:12:25;;;;;;;29.92;17.80;;;4.60;81.70;;;4.09;65.89;92977.28;5074590;28;20293;-80
2020/12/04 10:14:52;;;;;;;27.50;17.30;;;4.70;81.90;;;4.16;65.56;92975.47;5077805;28;20218;-81
2020/12/04 10:17:20;;;;;;;28.73;17.40;;;4.70;81.80;;;4.24;65.87;92978.88;5061100;28;20263;-81
2020/12/04 10:19:47;;;;;;;28.17;16.88;;;4.80;81.90;;;4.30;66.06;92981.44;5077442;28;20207;-81
2020/12/04 10:22:14;;;;;;;26.92;17.15;;;4.90;82.00;;;4.35;65.65;92980.84;5077986;28;20531;-80
2020/12/04 10:24:40;;;;;;;28.13;17.10;;;4.90;81.80;;;4.36;65.53;92982.44;5060721;28;20231;-81
2020/12/04 10:27:10;;;;;;;28.55;17.48;;;5.00;82.50;;;4.33;65.15;92978.47;5077940;28;20684;-81
2020/12/04 10:29:36;;;;;;;29.38;16.63;;;5.00;81.40;;;4.29;65.18;92966.88;5077194;28;20748;-82